Morgan, Texas
Current Conditions -  °F | °C
As of 2:55 AM on Wednesday 22 Oct 2014 (Local Time) from KCPT Reporting Station
Clear Clear  
Wind Chill: 63°   Ceiling: Unl
Heat Index: 63°   Visibility: 10mi
Dew Point: 59°   Wind: 5mph
Humidity: 88%   Direction: NA
Pressure: 30.09"   Gusts: NA
Location:  32.02°N, 97.61°W
Report Text: KCPT 220755Z AUTO VRB04KT 10SM CLR 17/15 A3009 RMK AO2
Loading
Personal Weather Stations






























Interactive Weather Map New forecast layout! Learn more

10-Day Weather Forecast

Advertisements
Track Severe Weather on mobile